Time;durP1;ratioP1;P1;durP2;ratioP2;P2;SDS_P1;SDS_P2;PMS_P1;PMS_P2;Temp;Humidity;BMP_temperature;BMP_pressure;BME280_temperature;BME280_humidity;BME280_pressure;Samples;Min_cycle;Max_cycle;Signal;HPM_P1;HPM_P2
2021/06/08 00:01:59;;;;;;;1.83;1.33;;;;;;;30.60;20.13;98421.41;5091282;28;20034;-85
2021/06/08 00:04:25;;;;;;;1.65;1.42;;;;;;;30.47;20.31;98422.81;5090488;28;20479;-85
2021/06/08 00:06:51;;;;;;;2.53;1.38;;;;;;;30.42;20.33;98421.38;5085423;28;20060;-85
2021/06/08 00:09:18;;;;;;;1.73;1.30;;;;;;;30.44;19.95;98413.19;5091874;28;20042;-85
2021/06/08 00:11:44;;;;;;;2.15;1.35;;;;;;;30.56;19.98;98417.16;5087995;28;20031;-85
2021/06/08 00:14:10;;;;;;;2.10;1.20;;;;;;;30.67;19.50;98414.63;5103849;28;20033;-85
2021/06/08 00:16:36;;;;;;;1.45;1.27;;;;;;;30.75;19.93;98413.88;5091192;28;20096;-85
2021/06/08 00:19:02;;;;;;;2.10;1.10;;;;;;;30.88;19.61;98412.94;5091460;28;20484;-85
2021/06/08 00:21:28;;;;;;;1.75;1.23;;;;;;;30.93;19.28;98415.94;5091542;28;20146;-85
2021/06/08 00:23:55;;;;;;;3.38;1.17;;;;;;;30.73;19.23;98413.56;5091977;28;20050;-85
2021/06/08 00:26:21;;;;;;;2.75;1.20;;;;;;;30.67;19.83;98409.75;5093973;28;20158;-85
2021/06/08 00:28:47;;;;;;;2.70;1.20;;;;;;;30.72;19.87;98411.97;5095081;28;20032;-84
2021/06/08 00:31:13;;;;;;;3.38;1.52;;;;;;;30.71;19.31;98407.56;5095778;28;20028;-85
2021/06/08 00:33:39;;;;;;;2.88;1.45;;;;;;;30.76;19.23;98404.09;5094948;28;20051;-85
2021/06/08 00:36:06;;;;;;;4.30;1.42;;;;;;;30.61;19.54;98406.00;5094618;28;20420;-85
2021/06/08 00:38:32;;;;;;;1.73;1.17;;;;;;;30.45;19.60;98403.47;5092995;28;20028;-85
2021/06/08 00:41:01;;;;;;;1.45;1.10;;;;;;;30.60;19.41;98395.91;5095375;28;20024;-85
2021/06/08 00:43:27;;;;;;;3.00;1.13;;;;;;;30.69;19.33;98404.41;5094562;28;20399;-85
2021/06/08 00:45:54;;;;;;;2.47;1.35;;;;;;;30.67;19.48;98394.78;5100319;28;20032;-84
2021/06/08 00:48:21;;;;;;;1.55;1.10;;;;;;;30.56;19.35;98395.28;5093627;28;20088;-85
2021/06/08 00:50:47;;;;;;;2.13;1.58;;;;;;;30.56;19.42;98395.28;5095170;28;20077;-85
2021/06/08 00:53:14;;;;;;;4.05;2.13;;;;;;;30.25;20.07;98391.72;5094653;28;20028;-85
2021/06/08 00:55:40;;;;;;;1.73;0.90;;;;;;;30.20;20.02;98400.06;5095097;28;20032;-85
2021/06/08 00:58:06;;;;;;;2.30;1.27;;;;;;;30.12;20.03;98396.75;5094212;28;20024;-84
2021/06/08 01:00:32;;;;;;;1.40;1.20;;;;;;;30.20;19.91;98391.56;5094812;28;20032;-85
2021/06/08 01:02:58;;;;;;;2.85;1.20;;;;;;;30.33;19.66;98395.09;5094594;28;20056;-84
2021/06/08 01:05:25;;;;;;;2.20;1.35;;;;;;;30.28;20.06;98390.78;5094350;28;20097;-84
2021/06/08 01:07:51;;;;;;;2.38;1.13;;;;;;;29.67;20.62;98393.69;5093603;28;20383;-84
2021/06/08 01:10:18;;;;;;;1.90;1.23;;;;;;;29.46;20.88;98395.31;5086122;28;20059;-84
2021/06/08 01:12:44;;;;;;;1.80;1.40;;;;;;;29.36;20.95;98397.31;5093799;28;20028;-85
2021/06/08 01:15:10;;;;;;;4.70;1.20;;;;;;;29.57;20.44;98395.69;5093407;28;20028;-84
2021/06/08 01:17:37;;;;;;;1.83;1.20;;;;;;;29.88;20.35;98395.69;5094539;28;20040;-85
2021/06/08 01:20:05;;;;;;;1.25;0.90;;;;;;;29.80;20.23;98392.38;5094836;28;20044;-84
2021/06/08 01:22:31;;;;;;;2.10;1.10;;;;;;;29.98;19.83;98397.31;5093839;28;20028;-84
2021/06/08 01:24:58;;;;;;;2.42;1.48;;;;;;;30.07;19.97;98394.50;5094578;28;20058;-84
2021/06/08 01:27:24;;;;;;;1.88;1.20;;;;;;;30.08;20.04;98394.03;5094040;28;20070;-84
2021/06/08 01:29:52;;;;;;;1.58;1.15;;;;;;;30.18;19.70;98397.69;5094541;28;20100;-84
2021/06/08 01:32:22;;;;;;;2.80;1.58;;;;;;;29.96;20.01;98397.78;5094268;28;20032;-84
2021/06/08 01:34:50;;;;;;;1.70;1.40;;;;;;;29.73;20.40;98398.31;5094265;28;20038;-84
2021/06/08 01:37:16;;;;;;;2.47;1.20;;;;;;;29.83;20.56;98393.47;5091357;28;20054;-84
2021/06/08 01:39:46;;;;;;;2.13;1.42;;;;;;;29.81;20.29;98396.00;5094092;28;20055;-85
2021/06/08 01:42:13;;;;;;;1.95;1.13;;;;;;;29.82;19.94;98394.75;5093155;28;20568;-85
2021/06/08 01:44:44;;;;;;;1.15;0.98;;;;;;;29.73;20.04;98397.50;5092490;28;20505;-84
2021/06/08 01:47:10;;;;;;;;;;;;;;;29.59;21.34;98398.88;5094109;28;20032;-84
2021/06/08 01:49:36;;;;;;;1.73;1.02;;;;;;;29.98;19.77;98397.31;5093577;28;20135;-84
2021/06/08 01:52:22;;;;;;;2.63;1.30;;;;;;;30.10;19.68;98393.59;5094152;28;20493;-84
2021/06/08 01:55:11;;;;;;;1.52;1.10;;;;;;;29.83;19.88;98393.47;5093668;28;20488;-84
2021/06/08 01:57:51;;;;;;;1.50;0.75;;;;;;;29.88;19.24;98387.22;5093846;28;20097;-84
2021/06/08 02:00:39;;;;;;;1.75;1.05;;;;;;;30.04;19.48;98393.41;5092207;28;20031;-84
2021/06/08 02:03:16;;;;;;;1.63;1.05;;;;;;;30.05;19.55;98386.50;5093715;28;20032;-84
2021/06/08 02:06:08;;;;;;;0.88;0.88;;;;;;;29.85;19.79;98385.34;5093581;28;20082;-84
2021/06/08 02:08:40;;;;;;;2.80;1.15;;;;;;;29.75;19.79;98389.34;5088556;28;20111;-84
2021/06/08 02:11:07;;;;;;;1.80;0.88;;;;;;;29.76;20.05;98399.41;5093629;28;20036;-84
2021/06/08 02:13:50;;;;;;;1.75;1.13;;;;;;;29.69;20.35;98399.69;5091866;28;20121;-84
2021/06/08 02:16:29;;;;;;;2.58;1.30;;;;;;;29.55;20.48;98406.69;5085593;28;20364;-84
2021/06/08 02:18:56;;;;;;;2.55;1.40;;;;;;;29.35;20.34;98412.72;5092757;28;20400;-84
2021/06/08 02:21:30;;;;;;;2.05;1.38;;;;;;;29.53;20.37;98408.41;5092338;28;20043;-84
2021/06/08 02:23:57;;;;;;;2.92;1.20;;;;;;;29.65;20.01;98402.66;5093492;28;20554;-84
2021/06/08 02:26:25;;;;;;;1.13;0.90;;;;;;;29.83;19.88;98404.81;5092856;28;20067;-84
2021/06/08 02:28:54;;;;;;;2.25;1.33;;;;;;;29.49;19.98;98410.59;5092943;28;20024;-84
2021/06/08 02:31:23;;;;;;;1.50;1.00;;;;;;;28.85;20.79;98404.47;5092600;28;20028;-84
2021/06/08 02:33:51;;;;;;;2.38;1.25;;;;;;;28.15;21.90;98407.69;5092611;28;20039;-83
2021/06/08 02:36:18;;;;;;;2.05;1.38;;;;;;;27.87;22.11;98409.38;5092527;28;20047;-84
2021/06/08 02:38:47;;;;;;;2.22;0.98;;;;;;;28.41;21.33;98411.25;5093248;28;20066;-84
2021/06/08 02:41:13;;;;;;;1.70;1.08;;;;;;;28.80;21.41;98398.63;5092952;28;20028;-84
2021/06/08 02:43:40;;;;;;;2.03;1.27;;;;;;;29.20;20.45;98405.22;5093087;28;20031;-84
2021/06/08 02:46:09;;;;;;;2.05;1.23;;;;;;;29.37;20.18;98403.75;5092356;28;20040;-83
2021/06/08 02:48:39;;;;;;;1.52;1.23;;;;;;;28.79;20.87;98411.16;5092718;28;20044;-84
2021/06/08 02:51:06;;;;;;;2.00;1.60;;;;;;;27.69;22.28;98416.84;5093074;28;20472;-84
2021/06/08 02:53:34;;;;;;;1.10;1.00;;;;;;;27.74;22.26;98413.47;5092831;28;20286;-84
2021/06/08 02:56:01;;;;;;;2.03;1.58;;;;;;;28.45;21.57;98412.72;5089152;28;20032;-84
2021/06/08 02:58:30;;;;;;;1.88;1.05;;;;;;;29.06;20.90;98422.69;5092281;28;20036;-84
2021/06/08 03:00:56;;;;;;;2.00;1.17;;;;;;;29.39;20.57;98423.88;5089487;28;20403;-84
2021/06/08 03:03:32;;;;;;;1.45;1.00;;;;;;;29.17;20.40;98425.94;5092474;28;20047;-84
2021/06/08 03:06:09;;;;;;;1.85;1.30;;;;;;;28.90;21.04;98423.66;5083692;28;20119;-84
2021/06/08 03:08:42;;;;;;;1.35;1.00;;;;;;;28.80;21.24;98432.53;5086091;28;20032;-84
2021/06/08 03:11:13;;;;;;;2.05;1.10;;;;;;;29.22;20.85;98433.84;5092864;28;20086;-84
2021/06/08 03:13:39;;;;;;;1.45;0.95;;;;;;;29.65;20.26;98430.97;5092174;28;20024;-84
2021/06/08 03:16:08;;;;;;;1.33;1.00;;;;;;;29.98;19.65;98434.94;5091801;28;20502;-84
2021/06/08 03:18:35;;;;;;;1.77;1.20;;;;;;;29.74;20.36;98441.53;5092504;28;20083;-84
2021/06/08 03:21:09;;;;;;;2.85;1.13;;;;;;;29.46;20.55;98440.59;5091774;28;20052;-84
2021/06/08 03:23:40;;;;;;;1.05;0.95;;;;;;;29.22;20.93;98445.16;5092087;28;20118;-84
2021/06/08 03:26:07;;;;;;;3.97;1.10;;;;;;;29.37;20.74;98447.00;5091644;28;20032;-84
2021/06/08 03:28:36;;;;;;;2.97;1.17;;;;;;;29.67;20.41;98442.59;5091920;28;20028;-84
2021/06/08 03:31:03;;;;;;;1.60;1.30;;;;;;;29.87;20.38;98443.03;5088735;28;20557;-84
2021/06/08 03:33:30;;;;;;;1.50;1.15;;;;;;;30.45;20.36;98448.00;5092339;28;20060;-84
2021/06/08 03:35:58;;;;;;;1.17;1.08;;;;;;;31.02;20.13;98447.13;5092030;28;20095;-84
2021/06/08 03:38:25;;;;;;;2.22;1.30;;;;;;;31.42;20.61;98450.59;5088579;28;20032;-84
2021/06/08 03:40:53;;;;;;;2.22;1.42;;;;;;;31.56;20.50;98452.00;5091891;28;20059;-85
2021/06/08 03:43:21;;;;;;;1.40;1.30;;;;;;;31.83;20.45;98449.09;5092008;28;20072;-85
2021/06/08 03:45:49;;;;;;;2.38;1.95;;;;;;;32.03;20.59;98451.41;5089326;28;20032;-84
2021/06/08 03:48:17;;;;;;;2.20;1.55;;;;;;;32.07;20.53;98454.84;5082456;28;20028;-84
2021/06/08 03:50:44;;;;;;;2.35;1.70;;;;;;;32.18;20.56;98451.50;5090744;28;20044;-84
2021/06/08 03:53:11;;;;;;;2.00;1.80;;;;;;;32.36;20.11;98451.41;5091992;28;20028;-85
2021/06/08 03:55:37;;;;;;;2.92;1.92;;;;;;;32.47;20.56;98457.31;5091717;28;20111;-85
2021/06/08 03:58:10;;;;;;;2.53;1.73;;;;;;;32.68;20.57;98457.06;5091656;28;20518;-85
2021/06/08 04:00:37;;;;;;;2.95;1.60;;;;;;;33.00;20.23;98451.78;5093430;28;20106;-85
2021/06/08 04:03:06;;;;;;;2.50;1.33;;;;;;;33.29;19.85;98446.19;5096123;28;20032;-85
2021/06/08 04:05:32;;;;;;;2.05;1.75;;;;;;;33.38;20.11;98451.78;5095515;28;20027;-85
2021/06/08 04:07:58;;;;;;;2.08;1.83;;;;;;;33.37;20.17;98455.91;5095607;28;20021;-85
2021/06/08 04:10:25;;;;;;;2.03;1.45;;;;;;;33.36;19.89;98449.44;5095269;28;20116;-85
2021/06/08 04:12:57;;;;;;;2.67;1.73;;;;;;;33.52;19.65;98448.16;5095198;28;20056;-85
2021/06/08 04:15:25;;;;;;;2.72;1.85;;;;;;;33.63;19.83;98448.38;5095572;28;20039;-85
2021/06/08 04:17:52;;;;;;;3.20;2.00;;;;;;;33.71;20.19;98445.94;5094907;28;20036;-86
2021/06/08 04:20:18;;;;;;;2.42;1.67;;;;;;;33.60;20.52;98446.53;5095064;28;20135;-85
2021/06/08 04:22:46;;;;;;;2.97;1.80;;;;;;;33.67;20.65;98445.34;5095263;28;20085;-85
2021/06/08 04:25:16;;;;;;;2.90;2.03;;;;;;;33.86;20.36;98446.72;5094192;28;20024;-86
2021/06/08 04:27:42;;;;;;;3.05;1.75;;;;;;;33.93;20.78;98444.25;5094619;28;20391;-86
2021/06/08 04:30:11;;;;;;;2.05;1.85;;;;;;;34.12;20.81;98450.56;5095775;28;20395;-85
2021/06/08 04:32:37;;;;;;;2.25;1.70;;;;;;;33.99;20.43;98450.81;5095439;28;20368;-85
2021/06/08 04:35:08;;;;;;;2.17;1.75;;;;;;;34.02;19.97;98447.00;5095808;28;20391;-86
2021/06/08 04:37:36;;;;;;;2.38;1.70;;;;;;;34.23;19.98;98447.88;5086525;28;20032;-86
2021/06/08 04:40:03;;;;;;;1.92;1.65;;;;;;;34.22;19.67;98454.84;5093789;28;20036;-86
2021/06/08 04:42:29;;;;;;;3.45;1.92;;;;;;;34.33;20.30;98452.13;5094958;28;20034;-86
2021/06/08 04:44:55;;;;;;;1.65;1.55;;;;;;;34.54;20.08;98455.88;5095158;28;20509;-86
2021/06/08 04:47:23;;;;;;;1.67;1.38;;;;;;;34.63;20.39;98455.72;5091569;28;20074;-84
2021/06/08 04:49:50;;;;;;;3.75;1.77;;;;;;;34.62;20.68;98454.16;5087572;28;20411;-84
2021/06/08 04:52:16;;;;;;;2.10;1.58;;;;;;;34.66;20.80;98458.34;5092071;28;20066;-84
2021/06/08 04:54:43;;;;;;;2.42;1.50;;;;;;;34.82;20.60;98459.09;5092568;28;20395;-84
2021/06/08 04:57:15;;;;;;;2.28;1.67;;;;;;;35.04;20.06;98462.25;5093129;28;20036;-84
2021/06/08 04:59:57;;;;;;;1.65;1.52;;;;;;;35.02;19.22;98457.03;5094710;28;20042;-85
2021/06/08 05:02:37;;;;;;;1.30;1.20;;;;;;;35.26;19.16;98462.50;5086236;28;20089;-84
2021/06/08 05:05:22;;;;;;;1.63;1.23;;;;;;;35.49;18.77;98460.69;5093834;28;20105;-84
2021/06/08 05:08:07;;;;;;;2.83;1.48;;;;;;;35.71;19.45;98458.84;5093670;28;20024;-84
2021/06/08 05:10:37;;;;;;;1.42;1.13;;;;;;;35.76;18.41;98463.81;5094633;28;20032;-84
2021/06/08 05:13:05;;;;;;;2.33;1.35;;;;;;;35.79;18.97;98462.03;5086484;28;20036;-87
2021/06/08 05:15:32;;;;;;;1.65;1.33;;;;;;;35.94;18.58;98463.47;5094319;28;20058;-87
2021/06/08 05:18:00;;;;;;;2.00;1.40;;;;;;;36.08;19.08;98456.09;5093515;28;20028;-87
2021/06/08 05:20:26;;;;;;;3.03;1.13;;;;;;;36.23;18.43;98462.44;5092464;28;20036;-89
2021/06/08 05:22:55;;;;;;;1.65;1.05;;;;;;;36.49;19.42;98460.31;5094573;28;20031;-87
2021/06/08 05:25:21;;;;;;;2.70;1.27;;;;;;;36.65;18.52;98464.53;5089757;28;20028;-86
2021/06/08 05:27:48;;;;;;;1.52;0.90;;;;;;;36.93;18.36;98462.63;5083775;28;20487;-85
2021/06/08 05:30:15;;;;;;;1.55;1.00;;;;;;;37.35;16.71;98456.78;5092697;28;20039;-85
2021/06/08 05:32:46;;;;;;;0.80;0.80;;;;;;;37.77;16.33;98467.31;5091090;28;20033;-86
2021/06/08 05:35:13;;;;;;;1.00;0.75;;;;;;;38.11;16.67;98462.41;5083491;28;20048;-93
2021/06/08 05:37:43;;;;;;;1.27;0.80;;;;;;;38.25;16.64;98464.22;5087572;28;20553;-83
2021/06/08 05:40:11;;;;;;;1.75;0.80;;;;;;;38.12;16.33;98463.19;5084596;28;20035;-84
2021/06/08 05:42:37;;;;;;;0.80;0.77;;;;;;;38.28;16.27;98460.31;5085539;28;20044;-86
2021/06/08 05:45:04;;;;;;;1.02;0.93;;;;;;;38.43;16.93;98451.44;5092613;28;20031;-86
2021/06/08 05:47:31;;;;;;;0.82;0.70;;;;;;;38.54;16.17;98455.06;5098316;28;20067;-86
2021/06/08 05:49:57;;;;;;;0.80;0.80;;;;;;;38.78;16.06;98463.13;5104547;28;20032;-87
2021/06/08 05:52:23;;;;;;;1.45;0.70;;;;;;;38.78;15.69;98450.84;5106867;28;20088;-87
2021/06/08 05:54:51;;;;;;;0.93;0.55;;;;;;;39.00;16.69;98462.28;5114480;28;20031;-86
2021/06/08 05:57:17;;;;;;;1.33;0.63;;;;;;;39.19;16.13;98461.16;5095265;28;20039;-86
2021/06/08 05:59:43;;;;;;;1.50;0.77;;;;;;;39.37;16.46;98465.50;5094551;28;20158;-86
2021/06/08 06:02:14;;;;;;;0.77;0.52;;;;;;;39.43;16.36;98465.47;5091754;28;20090;-85
2021/06/08 06:04:44;;;;;;;1.38;0.70;;;;;;;39.57;16.35;98455.72;5100133;28;20034;-85
2021/06/08 06:07:10;;;;;;;0.65;0.65;;;;;;;39.68;16.26;98464.28;5113125;28;20028;-86
2021/06/08 06:09:37;;;;;;;0.50;0.50;;;;;;;39.77;15.92;98458.22;5114652;28;20114;-86
2021/06/08 06:12:06;;;;;;;2.47;0.85;;;;;;;39.82;15.48;98461.03;5097834;28;20028;-87
2021/06/08 06:14:35;;;;;;;1.23;0.77;;;;;;;39.88;15.14;98461.81;5088073;28;20031;-86
2021/06/08 06:17:03;;;;;;;0.77;0.55;;;;;;;39.90;15.40;98464.91;5094360;28;20043;-86
2021/06/08 06:19:29;;;;;;;0.60;0.60;;;;;;;39.64;15.71;98458.81;5093655;28;20124;-88
2021/06/08 06:21:57;;;;;;;0.77;0.75;;;;;;;39.65;15.43;98459.63;5093376;28;20039;-86
2021/06/08 06:24:26;;;;;;;0.82;0.80;;;;;;;39.71;14.65;98460.34;5084925;28;20514;-86
2021/06/08 06:26:52;;;;;;;2.97;0.98;;;;;;;38.96;15.00;98450.25;5073297;28;20033;-86
2021/06/08 06:29:19;;;;;;;1.00;0.90;;;;;;;38.34;16.77;98452.50;5077124;28;20032;-88
2021/06/08 06:31:49;;;;;;;0.98;0.70;;;;;;;38.63;16.30;98449.03;5090620;28;20036;-86
2021/06/08 06:34:18;;;;;;;0.80;0.80;;;;;;;39.06;15.72;98449.44;5093622;28;20039;-86
2021/06/08 06:36:48;;;;;;;2.13;0.60;;;;;;;39.45;15.60;98455.00;5093177;28;20093;-86
2021/06/08 06:39:18;;;;;;;1.15;0.90;;;;;;;39.67;15.55;98451.22;5093857;28;20039;-87
2021/06/08 06:41:47;;;;;;;1.52;0.98;;;;;;;39.75;15.31;98447.25;5093867;28;20035;-87
2021/06/08 06:44:16;;;;;;;1.65;1.10;;;;;;;39.24;15.43;98445.19;5092282;28;20096;-86
2021/06/08 06:46:44;;;;;;;1.20;1.02;;;;;;;39.27;16.48;98452.75;5089459;28;20028;-87
2021/06/08 06:49:11;;;;;;;0.85;0.80;;;;;;;39.61;15.94;98448.38;5092818;28;20036;-86
2021/06/08 06:51:38;;;;;;;0.88;0.88;;;;;;;39.75;16.38;98447.25;5093191;28;20035;-87
2021/06/08 06:54:04;;;;;;;4.68;1.27;;;;;;;39.56;15.92;98452.03;5092334;28;20090;-85
2021/06/08 06:56:30;;;;;;;6.07;1.55;;;;;;;38.88;15.51;98447.19;5093291;28;20088;-86
2021/06/08 06:58:58;;;;;;;3.45;1.40;;;;;;;38.72;15.95;98448.00;5092891;28;20495;-86
2021/06/08 07:01:25;;;;;;;1.25;1.10;;;;;;;38.80;15.87;98457.63;5092363;28;20032;-87
2021/06/08 07:03:57;;;;;;;1.65;1.00;;;;;;;38.26;16.31;98451.44;5104003;28;20139;-86
2021/06/08 07:06:24;;;;;;;2.80;1.30;;;;;;;37.08;17.61;98451.00;5090858;28;20502;-87
2021/06/08 07:08:55;;;;;;;4.53;1.55;;;;;;;36.95;17.09;98460.03;5093010;28;20032;-90
2021/06/08 07:11:22;;;;;;;0.88;0.88;;;;;;;36.72;17.35;98447.69;5087196;28;20396;-86
2021/06/08 07:13:49;;;;;;;2.35;1.15;;;;;;;36.79;17.96;98451.34;5092880;28;20028;-87
2021/06/08 07:16:18;;;;;;;3.58;1.55;;;;;;;36.59;17.49;98453.09;5092303;28;20100;-89
2021/06/08 07:18:47;;;;;;;3.95;1.48;;;;;;;36.48;18.09;98447.28;5092801;28;20044;-88
2021/06/08 07:21:16;;;;;;;4.80;1.40;;;;;;;35.93;18.24;98446.84;5091966;28;20032;-85
2021/06/08 07:23:45;;;;;;;2.10;1.50;;;;;;;35.72;19.06;98453.91;5092247;28;20043;-84
2021/06/08 07:26:13;;;;;;;1.75;1.30;;;;;;;35.20;19.71;98455.94;5092951;28;20035;-85
2021/06/08 07:28:40;;;;;;;3.63;2.00;;;;;;;34.98;20.05;98458.53;5092546;28;20081;-84
2021/06/08 07:31:08;;;;;;;1.77;1.60;;;;;;;35.31;20.05;98461.81;5091907;28;20499;-84
2021/06/08 07:33:48;;;;;;;1.60;1.50;;;;;;;35.84;18.79;98462.09;5093000;28;20036;-84
2021/06/08 07:36:28;;;;;;;2.58;2.38;;;;;;;36.79;18.83;98465.66;5092239;28;20056;-84
2021/06/08 07:39:05;;;;;;;2.35;1.77;;;;;;;36.64;19.07;98458.03;5095478;28;20034;-84
2021/06/08 07:41:47;;;;;;;2.30;1.77;;;;;;;36.67;18.72;98459.09;5088728;28;20032;-84
2021/06/08 07:44:29;;;;;;;3.50;1.77;;;;;;;36.76;18.50;98456.00;5093349;28;20029;-88
2021/06/08 07:47:00;;;;;;;1.42;1.30;;;;;;;36.64;18.61;98458.03;5093024;28;20057;-87
2021/06/08 07:49:27;;;;;;;1.50;1.30;;;;;;;36.99;17.86;98454.88;5102404;28;20170;-85
2021/06/08 07:51:54;;;;;;;4.43;1.70;;;;;;;36.92;18.17;98452.50;5096710;28;20028;-85
2021/06/08 07:54:22;;;;;;;1.88;1.60;;;;;;;37.31;18.25;98462.00;5096583;28;20032;-87
2021/06/08 07:56:49;;;;;;;2.13;1.45;;;;;;;37.23;18.00;98460.13;5096795;28;20032;-91
2021/06/08 07:59:16;;;;;;;3.35;1.58;;;;;;;37.53;17.61;98457.66;5095301;28;20035;-86
2021/06/08 08:01:43;;;;;;;1.20;1.10;;;;;;;37.85;17.96;98454.06;5100049;28;20081;-87
2021/06/08 08:04:17;;;;;;;1.65;1.55;;;;;;;37.79;16.82;98452.47;5090419;28;20047;-86
2021/06/08 08:06:44;;;;;;;1.25;1.00;;;;;;;38.13;16.48;98454.06;5102277;28;20388;-86
2021/06/08 08:09:11;;;;;;;1.08;1.05;;;;;;;37.62;17.89;98454.53;5096462;28;20032;-87
2021/06/08 08:11:41;;;;;;;1.23;1.13;;;;;;;37.53;18.62;98460.53;5094089;28;20529;-86
2021/06/08 08:14:09;;;;;;;0.80;0.80;;;;;;;37.61;18.82;98456.63;5094727;28;20040;-87
2021/06/08 08:16:35;;;;;;;1.20;1.10;;;;;;;37.03;18.31;98455.41;5094872;28;20032;-88
2021/06/08 08:19:01;;;;;;;0.95;0.93;;;;;;;37.15;18.45;98457.00;5090810;28;20067;-91
2021/06/08 08:21:27;;;;;;;1.25;1.10;;;;;;;37.52;17.22;98453.22;5092295;28;20403;-91
2021/06/08 08:23:53;;;;;;;0.80;0.80;;;;;;;37.93;17.09;98445.72;5095854;28;20043;-90
2021/06/08 08:26:20;;;;;;;1.23;1.00;;;;;;;38.37;17.91;98444.94;5096193;28;20032;-93
2021/06/08 08:28:48;;;;;;;1.15;0.98;;;;;;;38.29;18.13;98441.03;5092930;28;20032;-94
2021/06/08 08:31:17;;;;;;;2.30;1.30;;;;;;;37.67;16.64;98445.94;5086777;28;20116;-91
2021/06/08 08:33:45;;;;;;;0.90;0.90;;;;;;;37.84;17.09;98438.16;5092750;28;20480;-93
2021/06/08 08:36:11;;;;;;;1.08;0.95;;;;;;;37.54;15.73;98447.75;5096163;28;20028;-91
2021/06/08 08:38:38;;;;;;;1.27;1.00;;;;;;;37.75;17.05;98444.13;5095819;28;20036;-92
2021/06/08 08:41:05;;;;;;;1.55;0.70;;;;;;;37.81;15.19;98439.16;5094930;28;20028;-94
2021/06/08 08:43:32;;;;;;;1.08;0.80;;;;;;;37.85;15.61;98441.81;5095556;28;20051;-89
2021/06/08 08:45:58;;;;;;;1.48;0.98;;;;;;;37.83;15.64;98447.28;5094891;28;20071;-88
2021/06/08 08:48:24;;;;;;;1.35;0.60;;;;;;;37.86;15.92;98443.38;5095223;28;20044;-90
2021/06/08 08:50:51;;;;;;;0.90;0.70;;;;;;;38.04;15.07;98446.50;5100779;28;20548;-90
2021/06/08 08:53:19;;;;;;;1.20;0.90;;;;;;;38.00;15.82;98445.19;5104089;28;20067;-90
2021/06/08 08:55:46;;;;;;;0.60;0.60;;;;;;;38.19;15.17;98440.50;5093838;28;20031;-90
2021/06/08 08:58:15;;;;;;;0.57;0.57;;;;;;;38.08;15.31;98448.31;5086769;28;20024;-88
2021/06/08 09:00:42;;;;;;;0.50;0.50;;;;;;;38.59;15.33;98442.78;5095706;28;20036;-85
2021/06/08 09:03:11;;;;;;;0.90;0.65;;;;;;;38.91;14.14;98442.47;5093113;28;20032;-86
2021/06/08 09:05:38;;;;;;;0.60;0.60;;;;;;;38.87;13.17;98436.19;5094035;28;20481;-87
2021/06/08 09:08:07;;;;;;;0.68;0.57;;;;;;;39.30;12.81;98432.34;5100395;28;20055;-86
2021/06/08 09:10:35;;;;;;;0.50;0.45;;;;;;;39.71;13.61;98440.22;5093849;28;20078;-86
2021/06/08 09:13:02;;;;;;;4.65;0.80;;;;;;;39.72;13.18;98444.66;5090144;28;20031;-86
2021/06/08 09:15:28;;;;;;;1.75;0.50;;;;;;;39.77;13.83;98441.72;5094403;28;20161;-86
2021/06/08 09:17:58;;;;;;;0.60;0.60;;;;;;;40.07;12.95;98438.13;5095091;28;20040;-86
2021/06/08 09:20:26;;;;;;;0.40;0.40;;;;;;;40.17;13.70;98439.34;5093901;28;20059;-86
2021/06/08 09:23:02;;;;;;;2.22;0.75;;;;;;;40.36;13.32;98432.34;5094642;28;20035;-85
2021/06/08 09:25:37;;;;;;;0.57;0.57;;;;;;;40.01;13.08;98433.19;5094588;28;20032;-85
2021/06/08 09:28:36;;;;;;;0.73;0.70;;;;;;;38.88;13.77;98435.69;5095029;28;20487;-85
2021/06/08 09:31:09;;;;;;;0.60;0.60;;;;;;;39.60;14.13;98435.34;5094526;28;20032;-85
2021/06/08 09:33:38;;;;;;;0.70;0.70;;;;;;;39.34;14.00;98432.88;5094549;28;20111;-86
2021/06/08 09:36:12;;;;;;;0.98;0.90;;;;;;;38.27;13.43;98427.22;5093955;28;20383;-87
2021/06/08 09:38:43;;;;;;;0.63;0.63;;;;;;;37.77;16.37;98429.25;5093031;28;20028;-87
2021/06/08 09:41:26;;;;;;;1.27;0.90;;;;;;;37.16;14.58;98438.50;5093021;28;20154;-87
2021/06/08 09:43:57;;;;;;;2.35;0.70;;;;;;;37.97;14.77;98434.78;5093958;28;20548;-87
2021/06/08 09:46:29;;;;;;;0.70;0.70;;;;;;;38.92;13.80;98427.56;5094601;28;20036;-87
2021/06/08 09:49:04;;;;;;;0.65;0.60;;;;;;;39.08;13.26;98417.31;5094015;28;20457;-86
2021/06/08 09:51:49;;;;;;;0.70;0.70;;;;;;;39.34;12.67;98418.50;5091745;28;20579;-88
2021/06/08 09:54:32;;;;;;;0.68;0.68;;;;;;;39.52;13.59;98425.69;5093155;28;20506;-90
2021/06/08 09:57:32;;;;;;;1.48;0.60;;;;;;;39.36;14.51;98424.50;5092591;28;20020;-87
2021/06/08 09:59:59;;;;;;;0.50;0.50;;;;;;;40.37;13.44;98421.63;5080143;28;20032;-87
2021/06/08 10:02:25;;;;;;;0.60;0.60;;;;;;;41.38;13.11;98422.00;5097404;28;20387;-87
2021/06/08 10:04:52;;;;;;;0.50;0.50;;;;;;;41.67;11.92;98412.38;5093523;28;20368;-88
2021/06/08 10:07:29;;;;;;;1.38;0.60;;;;;;;40.32;12.93;98420.34;5093830;28;20081;-86
2021/06/08 10:10:08;;;;;;;0.47;0.47;;;;;;;40.66;12.47;98417.91;5093823;28;20038;-85
2021/06/08 10:12:55;;;;;;;0.80;0.60;;;;;;;39.09;13.38;98416.78;5092736;28;20055;-85
2021/06/08 10:15:22;;;;;;;0.57;0.57;;;;;;;39.36;12.75;98415.88;5092045;28;20032;-84
2021/06/08 10:17:55;;;;;;;0.40;0.40;;;;;;;39.80;12.48;98414.78;5092658;28;20040;-86
2021/06/08 10:20:36;;;;;;;0.50;0.50;;;;;;;39.75;13.80;98415.59;5092568;27;20402;-87
2021/06/08 10:23:22;;;;;;;0.40;0.40;;;;;;;40.08;13.50;98416.66;5084325;28;20033;-88
2021/06/08 10:25:50;;;;;;;0.80;0.47;;;;;;;39.06;13.34;98417.06;5078472;28;20033;-87
2021/06/08 10:28:17;;;;;;;0.60;0.60;;;;;;;38.64;13.16;98413.31;5075327;28;20071;-88
2021/06/08 10:30:45;;;;;;;0.50;0.50;;;;;;;38.43;13.74;98414.94;5084406;28;20434;-88
2021/06/08 10:33:12;;;;;;;0.88;0.68;;;;;;;38.05;14.37;98412.88;5089636;28;20473;-87
2021/06/08 10:35:38;;;;;;;0.50;0.50;;;;;;;38.16;15.13;98424.31;5087850;28;20024;-88
2021/06/08 10:38:06;;;;;;;1.70;0.50;;;;;;;37.99;14.35;98412.88;5075180;28;20044;-87
2021/06/08 10:40:34;;;;;;;0.50;0.50;;;;;;;38.29;15.22;98413.13;5084643;28;20119;-85
2021/06/08 10:43:00;;;;;;;0.45;0.45;;;;;;;38.25;14.70;98414.69;5086819;28;20061;-87
2021/06/08 10:45:35;;;;;;;0.45;0.45;;;;;;;37.77;15.74;98414.94;5086003;28;20044;-87
2021/06/08 10:48:16;;;;;;;0.77;0.75;;;;;;;38.36;14.40;98412.59;5071445;28;20036;-85
2021/06/08 10:50:47;;;;;;;2.30;0.80;;;;;;;38.55;15.35;98413.59;5074538;28;20036;-86
2021/06/08 10:53:39;;;;;;;1.48;0.60;;;;;;;38.66;15.05;98412.75;5071445;28;20373;-86
2021/06/08 10:56:27;;;;;;;0.80;0.80;;;;;;;39.06;15.20;98412.09;5077742;28;20039;-89
2021/06/08 10:59:04;;;;;;;1.00;0.85;;;;;;;39.65;13.87;98402.91;5074518;28;20025;-88
2021/06/08 11:01:35;;;;;;;1.40;0.77;;;;;;;39.72;15.44;98408.06;5075969;28;20039;-88
2021/06/08 11:04:06;;;;;;;0.90;0.70;;;;;;;39.43;14.37;98408.78;5077728;28;20107;-88
2021/06/08 11:06:57;;;;;;;0.80;0.60;;;;;;;39.51;13.77;98404.03;5073561;28;20111;-89
2021/06/08 11:09:28;;;;;;;0.73;0.63;;;;;;;39.55;12.50;98401.63;5077528;28;20032;-88
2021/06/08 11:12:06;;;;;;;0.70;0.70;;;;;;;40.05;14.50;98395.53;5078876;28;20029;-88
2021/06/08 11:14:32;;;;;;;0.82;0.82;;;;;;;40.88;14.21;98403.28;5077829;28;20045;-89
2021/06/08 11:17:07;;;;;;;1.05;0.80;;;;;;;40.32;12.24;98393.66;5087213;28;20049;-89
2021/06/08 11:19:48;;;;;;;0.90;0.60;;;;;;;40.88;12.18;98390.97;5073823;28;20528;-88
2021/06/08 11:22:17;;;;;;;0.70;0.70;;;;;;;39.32;13.52;98389.53;5072920;28;20060;-89
2021/06/08 11:24:45;;;;;;;1.23;0.63;;;;;;;39.99;13.21;98386.91;5083563;28;20037;-89
2021/06/08 11:27:12;;;;;;;2.33;1.13;;;;;;;39.46;13.34;98381.84;5081527;28;20039;-89
2021/06/08 11:29:46;;;;;;;1.75;0.90;;;;;;;39.68;13.92;98373.06;5070416;28;20127;-89
2021/06/08 11:32:42;;;;;;;1.75;0.85;;;;;;;40.64;13.07;98388.88;5061832;28;20035;-89
2021/06/08 11:35:18;;;;;;;2.05;1.25;;;;;;;41.48;12.50;98377.81;5085914;28;20051;-89
2021/06/08 11:37:57;;;;;;;1.40;1.00;;;;;;;41.04;12.28;98375.56;5062874;28;20085;-88
2021/06/08 11:40:38;;;;;;;1.17;0.80;;;;;;;41.75;12.64;98379.50;5064592;28;20044;-89
2021/06/08 11:43:04;;;;;;;0.52;0.50;;;;;;;42.21;14.30;98374.50;5065482;28;20037;-89
2021/06/08 11:45:32;;;;;;;0.68;0.65;;;;;;;42.43;11.18;98371.19;5064817;28;20518;-86
2021/06/08 11:47:58;;;;;;;0.85;0.65;;;;;;;43.21;11.55;98370.34;5060582;28;20064;-89